Terminal Aerodrome Forecast
Issued by NWS

Current Version | Previous Version | Graphics & Text | Print | Product List | Glossary On
Versions: 1 2 3 4 5 6 7 8 9 10 11 12 13 14 15 16 17 18 19
521
FTUS41 KILN 240530
TAFLUK
TAF
KLUK 240530Z 2406/2506 00000KT P6SM BKN250
      TEMPO 2408/2412 1SM BR
     FM241400 22005KT P6SM SCT025 SCT250
     FM241800 25006KT P6SM SCT045
     FM250000 VRB03KT P6SM SCT040=

USA.gov is the U.S. government's official web portal to all federal, state and local government web resources and services.